Alvarado, Minnesota
Current Conditions -  °F | °C
As of 10:53 PM on Wednesday 22 Oct 2014 (Local Time) from KGFK Reporting Station
Scattered Clouds Scattered Clouds  
Wind Chill: 45°   Ceiling: Unl
Heat Index: 49°   Visibility: 10mi
Dew Point: 47°   Wind: 8mph
Humidity: 93%   Direction: 200°SSW
Pressure: 29.85"   Gusts: NA
Location:  48.19°N, 97°W
Report Text: KGFK 230353Z 20007KT 10SM FEW120 SCT150 09/08 A2985 RMK AO2 SLP111 T00940083
Loading
Personal Weather Stations






























Interactive Weather Map
Tropical Storm Tracking
New forecast layout! Learn more

10-Day Weather Forecast

Advertisements
Track Severe Weather on mobile